Time;durP1;ratioP1;P1;durP2;ratioP2;P2;SDS_P1;SDS_P2;PMS_P1;PMS_P2;Temp;Humidity;BMP_temperature;BMP_pressure;BME280_temperature;BME280_humidity;BME280_pressure;Samples;Min_cycle;Max_cycle;Signal;HPM_P1;HPM_P2
2024/01/03 00:05:09;;;;;;;127.10;119.90;;;10.20;99.90;;;;;;12440372;28;20027;-86
2024/01/03 00:11:19;;;;;;;131.15;123.63;;;10.20;99.90;;;;;;12445278;28;20019;-87
2024/01/03 00:17:22;;;;;;;140.18;132.27;;;10.30;99.90;;;;;;12440615;28;20042;-87
2024/01/03 00:23:32;;;;;;;142.20;134.63;;;10.30;99.90;;;;;;12412216;28;20042;-89
2024/01/03 00:29:48;;;;;;;143.20;135.40;;;10.50;99.90;;;;;;12409071;28;20038;-87
2024/01/03 00:35:51;;;;;;;141.93;134.43;;;10.50;99.90;;;;;;12401989;28;20061;-87
2024/01/03 00:41:54;;;;;;;139.17;131.93;;;10.50;99.90;;;;;;12399465;28;20062;-89
2024/01/03 00:47:57;;;;;;;133.18;126.25;;;10.40;99.90;;;;;;12415396;28;20042;-89
2024/01/03 00:53:59;;;;;;;127.60;121.03;;;10.30;99.90;;;;;;12399513;28;20046;-88
2024/01/03 01:00:02;;;;;;;116.13;110.40;;;10.20;99.90;;;;;;12393471;28;20054;-87
2024/01/03 01:06:05;;;;;;;118.60;112.65;;;10.20;99.90;;;;;;12415964;28;20052;-87
2024/01/03 01:12:07;;;;;;;116.45;110.65;;;10.20;99.90;;;;;;12404189;28;20464;-87
2024/01/03 01:18:09;;;;;;;114.97;108.70;;;10.20;99.90;;;;;;12415457;28;20053;-89
2024/01/03 01:24:13;;;;;;;114.20;108.03;;;10.10;99.90;;;;;;12404234;28;20038;-86
2024/01/03 01:30:15;;;;;;;113.65;107.55;;;10.10;99.90;;;;;;12414209;28;20086;-89
2024/01/03 01:36:17;;;;;;;115.22;109.03;;;10.10;99.90;;;;;;12402710;28;20494;-85
2024/01/03 01:42:19;;;;;;;113.70;107.57;;;10.30;99.90;;;;;;12411848;28;20054;-87
2024/01/03 01:48:22;;;;;;;114.25;108.53;;;10.30;99.90;;;;;;12414662;28;20038;-87
2024/01/03 01:54:27;;;;;;;115.30;109.43;;;10.30;99.90;;;;;;12376363;28;20065;-87
2024/01/03 02:00:29;;;;;;;110.90;105.30;;;10.20;99.90;;;;;;12394823;28;20046;-85
2024/01/03 02:06:33;;;;;;;108.55;103.15;;;10.30;99.90;;;;;;12394610;28;20042;-89
2024/01/03 02:12:35;;;;;;;108.57;102.82;;;10.30;99.90;;;;;;12408979;28;20052;-88
2024/01/03 02:18:38;;;;;;;107.22;101.60;;;10.30;99.90;;;;;;12451374;28;20061;-86
2024/01/03 02:24:40;;;;;;;102.40;96.97;;;10.30;99.90;;;;;;12423641;28;20100;-86
2024/01/03 02:30:44;;;;;;;101.40;96.22;;;10.20;99.90;;;;;;12427560;28;20454;-88
2024/01/03 02:36:50;;;;;;;99.32;93.85;;;10.20;99.90;;;;;;12412661;28;20101;-88
2024/01/03 02:42:52;;;;;;;93.22;88.43;;;10.20;99.90;;;;;;12408854;28;20391;-86
2024/01/03 02:48:54;;;;;;;93.82;88.85;;;10.10;99.90;;;;;;12425265;28;20054;-87
2024/01/03 02:54:56;;;;;;;81.18;76.88;;;10.00;99.90;;;;;;12407639;28;20057;-87
2024/01/03 03:00:58;;;;;;;88.45;83.32;;;10.10;99.90;;;;;;12412071;28;20054;-86
2024/01/03 03:07:00;;;;;;;85.43;80.82;;;10.10;99.90;;;;;;12402896;28;20068;-81
2024/01/03 03:13:02;;;;;;;85.18;80.90;;;10.00;99.90;;;;;;12400124;28;20038;-83
2024/01/03 03:19:05;;;;;;;86.57;81.75;;;10.00;99.90;;;;;;12396905;28;20043;-82
2024/01/03 03:25:07;;;;;;;84.67;80.20;;;10.10;99.90;;;;;;12392081;28;20054;-83
2024/01/03 03:31:10;;;;;;;76.63;72.32;;;10.10;99.90;;;;;;12420204;28;20054;-82
2024/01/03 03:37:12;;;;;;;61.08;57.45;;;9.90;99.90;;;;;;12425872;28;20341;-83
2024/01/03 03:43:14;;;;;;;54.97;51.85;;;9.80;99.90;;;;;;12402303;28;20073;-83
2024/01/03 03:49:16;;;;;;;75.57;71.25;;;9.80;99.90;;;;;;12395329;28;20050;-87
2024/01/03 03:55:18;;;;;;;56.95;53.80;;;9.80;99.90;;;;;;12389390;28;20058;-86
2024/01/03 04:01:20;;;;;;;61.05;57.67;;;9.90;99.90;;;;;;12405849;28;20061;-83
2024/01/03 04:07:22;;;;;;;58.85;55.53;;;9.80;99.90;;;;;;12392397;28;20050;-84
2024/01/03 04:13:25;;;;;;;56.63;53.45;;;9.50;99.90;;;;;;12383672;28;20105;-82
2024/01/03 04:19:27;;;;;;;61.10;57.30;;;9.20;99.90;;;;;;12413416;28;21568;-87
2024/01/03 04:25:29;;;;;;;74.60;70.10;;;9.00;99.90;;;;;;12422961;28;20118;-88
2024/01/03 04:31:31;;;;;;;90.07;83.93;;;8.80;99.90;;;;;;12408868;28;20054;-87
2024/01/03 04:37:35;;;;;;;88.78;82.47;;;8.80;99.90;;;;;;12416966;28;20042;-90
2024/01/03 04:43:37;;;;;;;85.68;79.03;;;8.70;99.90;;;;;;12411246;28;20058;-86
2024/01/03 04:49:39;;;;;;;81.70;75.70;;;8.70;99.90;;;;;;12419757;28;20124;-88
2024/01/03 04:55:40;;;;;;;84.85;78.72;;;8.70;99.90;;;;;;12419814;28;20049;-87
2024/01/03 05:01:42;;;;;;;83.45;77.47;;;8.80;99.90;;;;;;12416876;28;20047;-88
2024/01/03 05:07:44;;;;;;;84.60;77.93;;;8.90;99.90;;;;;;12418413;28;20054;-88
2024/01/03 05:13:46;;;;;;;85.63;79.32;;;9.00;99.90;;;;;;12418982;28;20077;-88
2024/01/03 05:19:48;;;;;;;83.35;76.93;;;9.00;99.90;;;;;;12430539;28;20050;-89
2024/01/03 05:25:50;;;;;;;82.30;75.90;;;8.90;99.90;;;;;;12407062;28;20076;-83
2024/01/03 05:31:52;;;;;;;78.53;71.93;;;8.90;99.90;;;;;;12416647;28;20051;-83
2024/01/03 05:37:54;;;;;;;82.78;76.28;;;8.70;99.90;;;;;;12407016;28;20053;-84
2024/01/03 05:43:56;;;;;;;83.25;76.50;;;8.80;99.90;;;;;;12409372;28;20055;-83
2024/01/03 05:49:58;;;;;;;83.35;77.15;;;8.90;99.90;;;;;;12415695;28;20069;-81
2024/01/03 05:56:00;;;;;;;88.60;81.07;;;8.90;99.90;;;;;;12417726;28;20106;-83
2024/01/03 06:02:02;;;;;;;89.05;82.20;;;9.00;99.90;;;;;;12419625;28;20054;-82
2024/01/03 06:08:04;;;;;;;83.20;76.43;;;9.00;99.90;;;;;;12414092;28;20038;-83
2024/01/03 06:14:06;;;;;;;85.57;78.07;;;9.00;99.90;;;;;;12410360;28;20051;-81
2024/01/03 06:20:09;;;;;;;87.20;80.30;;;9.00;99.90;;;;;;12416934;28;20061;-82
2024/01/03 06:26:11;;;;;;;94.63;87.57;;;9.10;99.90;;;;;;12401587;28;20047;-82
2024/01/03 06:32:14;;;;;;;92.63;85.35;;;9.20;99.90;;;;;;12404139;28;20052;-83
2024/01/03 06:38:16;;;;;;;89.20;82.18;;;9.20;99.90;;;;;;12403087;28;20077;-87
2024/01/03 06:44:18;;;;;;;94.18;86.78;;;9.30;99.90;;;;;;12406256;28;20506;-88
2024/01/03 06:50:20;;;;;;;91.93;84.85;;;9.20;99.90;;;;;;12390546;28;20061;-88
2024/01/03 06:56:24;;;;;;;91.45;84.35;;;9.10;99.90;;;;;;12382780;28;20047;-88
2024/01/03 07:02:26;;;;;;;94.78;87.15;;;9.20;99.90;;;;;;12381275;28;20043;-87
2024/01/03 07:08:28;;;;;;;91.57;84.07;;;9.20;99.90;;;;;;12389958;28;20062;-88
2024/01/03 07:14:31;;;;;;;92.63;85.03;;;9.10;99.90;;;;;;12379684;28;20077;-88
2024/01/03 07:20:33;;;;;;;94.30;87.10;;;9.20;99.90;;;;;;12370563;28;20054;-89
2024/01/03 07:26:35;;;;;;;97.28;89.55;;;9.20;99.90;;;;;;12385300;28;20089;-86
2024/01/03 07:32:37;;;;;;;93.07;85.65;;;9.30;99.90;;;;;;12380674;28;20061;-87
2024/01/03 07:38:39;;;;;;;89.05;82.72;;;9.30;99.90;;;;;;12420739;28;20117;-88
2024/01/03 07:44:42;;;;;;;102.72;95.05;;;9.40;99.90;;;;;;12407688;28;20077;-88
2024/01/03 07:50:44;;;;;;;98.80;91.70;;;9.50;99.90;;;;;;12400337;28;20100;-89
2024/01/03 07:56:46;;;;;;;104.47;96.78;;;9.50;99.90;;;;;;12399510;28;20490;-90
2024/01/03 08:02:48;;;;;;;109.28;101.53;;;9.50;99.90;;;;;;12406189;28;20045;-89
2024/01/03 08:08:50;;;;;;;111.53;103.82;;;9.40;99.90;;;;;;12398572;28;20064;-86
2024/01/03 08:14:52;;;;;;;112.20;104.30;;;9.40;99.90;;;;;;12380792;28;20180;-88
2024/01/03 08:20:54;;;;;;;111.18;103.45;;;9.40;99.90;;;;;;12393336;28;20054;-88
2024/01/03 08:26:57;;;;;;;109.60;102.10;;;9.40;99.90;;;;;;12378365;28;20058;-88
2024/01/03 08:32:59;;;;;;;107.85;100.75;;;9.50;99.90;;;;;;12392855;28;20073;-89
2024/01/03 08:39:02;;;;;;;111.55;103.93;;;9.50;99.90;;;;;;12414399;28;20051;-90
2024/01/03 08:45:04;;;;;;;116.15;108.32;;;9.50;99.90;;;;;;12385614;28;20051;-88
2024/01/03 08:51:12;;;;;;;113.43;105.63;;;9.40;99.90;;;;;;12386099;28;20061;-87
2024/01/03 08:57:15;;;;;;;109.80;102.30;;;9.40;99.90;;;;;;12413369;28;20058;-86
2024/01/03 09:03:17;;;;;;;109.00;101.63;;;9.30;99.90;;;;;;12407069;28;20110;-88
2024/01/03 09:09:19;;;;;;;103.53;96.25;;;9.40;99.90;;;;;;12413196;28;20141;-89
2024/01/03 09:15:21;;;;;;;104.25;96.85;;;9.30;99.90;;;;;;12402589;28;20050;-87
2024/01/03 09:21:23;;;;;;;101.53;94.22;;;9.20;99.90;;;;;;12402875;28;20049;-88
2024/01/03 09:27:25;;;;;;;96.47;89.47;;;9.10;99.90;;;;;;12420171;28;20581;-87
2024/01/03 09:33:27;;;;;;;93.38;86.28;;;9.10;99.90;;;;;;12437065;28;20034;-85
2024/01/03 09:39:29;;;;;;;91.43;84.63;;;8.90;99.90;;;;;;12419688;28;20047;-88
2024/01/03 09:45:31;;;;;;;84.28;77.95;;;8.80;99.90;;;;;;12403047;28;20051;-90
2024/01/03 09:51:34;;;;;;;80.63;74.65;;;8.60;99.90;;;;;;12409745;28;20053;-88
2024/01/03 09:57:40;;;;;;;79.80;74.15;;;8.60;99.90;;;;;;12410213;28;20055;-88
2024/01/03 10:03:43;;;;;;;75.90;70.00;;;8.60;99.90;;;;;;12443474;28;20050;-86
2024/01/03 10:09:49;;;;;;;73.25;67.65;;;8.70;99.90;;;;;;12405356;28;20058;-82
2024/01/03 10:15:50;;;;;;;69.50;64.03;;;8.90;99.90;;;;;;12386990;28;20521;-88
2024/01/03 10:21:54;;;;;;;73.60;67.90;;;8.90;99.90;;;;;;12397658;28;20038;-82
2024/01/03 10:28:00;;;;;;;76.90;70.72;;;9.00;99.90;;;;;;12393323;28;20047;-80
2024/01/03 10:34:05;;;;;;;72.97;67.10;;;8.90;99.90;;;;;;12394125;28;20113;-81
2024/01/03 10:40:08;;;;;;;75.35;68.78;;;8.90;99.90;;;;;;12405948;28;20066;-87
2024/01/03 10:46:11;;;;;;;75.35;69.15;;;8.90;99.90;;;;;;12400115;28;20061;-82
2024/01/03 10:52:17;;;;;;;81.25;74.65;;;8.70;99.90;;;;;;12412775;28;20046;-84
2024/01/03 10:58:23;;;;;;;75.88;70.20;;;8.70;99.90;;;;;;12403764;28;20058;-85
2024/01/03 11:04:51;;;;;;;82.40;76.50;;;8.60;99.90;;;;;;12441649;28;20033;-86
2024/01/03 11:10:53;;;;;;;77.85;71.95;;;8.50;99.90;;;;;;12409491;28;20054;-83
2024/01/03 11:16:56;;;;;;;74.40;68.90;;;8.50;99.90;;;;;;12406366;28;20076;-85
2024/01/03 11:23:02;;;;;;;80.40;74.38;;;8.60;99.90;;;;;;12419836;28;20046;-86
2024/01/03 11:29:04;;;;;;;80.03;73.93;;;8.70;99.90;;;;;;12439708;28;20098;-83
2024/01/03 11:35:08;;;;;;;84.78;78.43;;;8.80;99.90;;;;;;12403804;28;20054;-81
2024/01/03 11:41:16;;;;;;;80.13;74.03;;;8.90;99.90;;;;;;12399063;28;20050;-84
2024/01/03 11:47:21;;;;;;;83.05;76.85;;;8.90;99.90;;;;;;12395092;28;20050;-82
2024/01/03 11:53:24;;;;;;;77.10;71.40;;;8.90;99.90;;;;;;12397688;28;20047;-85
2024/01/03 11:59:26;;;;;;;84.32;77.85;;;9.00;99.90;;;;;;12388595;28;20073;-82
2024/01/03 12:05:28;;;;;;;86.40;79.93;;;8.90;99.90;;;;;;12390409;28;20039;-83
2024/01/03 12:11:32;;;;;;;87.45;80.93;;;8.80;99.90;;;;;;12391943;28;20121;-85
2024/01/03 12:17:34;;;;;;;88.25;82.03;;;8.70;99.90;;;;;;12387941;28;20053;-82
2024/01/03 12:23:36;;;;;;;84.78;78.68;;;8.60;99.90;;;;;;12387943;28;20047;-83
2024/01/03 12:29:41;;;;;;;84.85;78.47;;;8.60;99.90;;;;;;12401298;28;20574;-83
2024/01/03 12:35:48;;;;;;;86.40;79.60;;;8.70;99.90;;;;;;12409889;28;20135;-83
2024/01/03 12:41:51;;;;;;;91.55;84.78;;;8.70;99.90;;;;;;12407122;28;20101;-81
2024/01/03 12:47:53;;;;;;;90.25;83.13;;;8.70;99.90;;;;;;12412773;28;20118;-82
2024/01/03 12:53:56;;;;;;;93.15;86.35;;;8.70;99.90;;;;;;12418208;28;20103;-82
2024/01/03 12:59:59;;;;;;;99.32;92.32;;;8.70;99.90;;;;;;12410067;28;20049;-83
2024/01/03 13:06:01;;;;;;;97.60;90.60;;;8.70;99.90;;;;;;12411606;28;20043;-84
2024/01/03 13:12:04;;;;;;;98.13;91.13;;;8.70;99.90;;;;;;12403624;28;20069;-83
2024/01/03 13:18:06;;;;;;;103.00;94.90;;;8.70;99.90;;;;;;12400199;28;20054;-85
2024/01/03 13:24:08;;;;;;;101.97;94.47;;;8.70;99.90;;;;;;12398205;28;20052;-82
2024/01/03 13:30:11;;;;;;;105.10;97.53;;;8.70;99.90;;;;;;12397371;28;20066;-83
2024/01/03 13:36:14;;;;;;;92.80;86.20;;;8.80;99.90;;;;;;12401308;28;20080;-81
2024/01/03 13:42:17;;;;;;;93.60;86.73;;;8.80;99.90;;;;;;12402342;28;20050;-83
2024/01/03 13:48:19;;;;;;;97.95;90.57;;;8.70;99.90;;;;;;12398986;28;20051;-82
2024/01/03 13:54:21;;;;;;;95.80;88.70;;;8.80;99.90;;;;;;12394575;28;20050;-82
2024/01/03 14:00:24;;;;;;;97.80;90.50;;;8.80;99.90;;;;;;12386660;28;20047;-81
2024/01/03 14:06:25;;;;;;;101.07;93.75;;;9.00;99.90;;;;;;12424457;28;20042;-83
2024/01/03 14:12:28;;;;;;;100.68;93.10;;;9.00;99.90;;;;;;12387329;28;20055;-82
2024/01/03 14:18:29;;;;;;;105.15;97.45;;;9.10;99.90;;;;;;12398134;28;20050;-82
2024/01/03 14:24:32;;;;;;;99.32;91.80;;;9.00;99.90;;;;;;12385121;28;20502;-86
2024/01/03 14:30:34;;;;;;;102.18;94.95;;;9.00;99.90;;;;;;12401394;28;20061;-81
2024/01/03 14:36:36;;;;;;;102.22;94.80;;;9.00;99.90;;;;;;12407451;28;20073;-87
2024/01/03 14:42:38;;;;;;;103.55;96.25;;;8.90;99.90;;;;;;12388668;28;20125;-82
2024/01/03 14:48:40;;;;;;;95.32;88.53;;;8.80;99.90;;;;;;12411445;28;20055;-87
2024/01/03 14:54:42;;;;;;;97.57;90.65;;;8.80;99.90;;;;;;12394999;28;20062;-87
2024/01/03 15:00:45;;;;;;;96.28;89.65;;;8.80;99.90;;;;;;12413183;28;20331;-88
2024/01/03 15:06:57;;;;;;;98.95;91.70;;;8.90;99.90;;;;;;12391088;28;20046;-84
2024/01/03 15:13:00;;;;;;;98.13;91.15;;;8.80;99.90;;;;;;12378940;28;20054;-87
2024/01/03 15:19:03;;;;;;;101.57;93.90;;;8.80;99.90;;;;;;12392563;28;20066;-89
2024/01/03 15:25:05;;;;;;;100.05;92.50;;;8.80;99.90;;;;;;12388466;28;20042;-90
2024/01/03 15:31:08;;;;;;;94.93;88.00;;;8.90;99.90;;;;;;12389820;28;20051;-90
2024/01/03 15:37:10;;;;;;;99.85;92.40;;;9.00;99.90;;;;;;12393437;28;20062;-89
2024/01/03 15:43:13;;;;;;;102.70;95.00;;;9.00;99.90;;;;;;12395157;28;20058;-88
2024/01/03 15:49:15;;;;;;;100.15;92.65;;;9.00;99.90;;;;;;12419804;28;20126;-89
2024/01/03 15:55:17;;;;;;;94.22;87.38;;;9.00;99.90;;;;;;12382947;28;20051;-81
2024/01/03 16:01:19;;;;;;;92.30;85.60;;;9.10;99.90;;;;;;12384843;28;20050;-84
2024/01/03 16:07:22;;;;;;;101.57;94.18;;;9.10;99.90;;;;;;12389119;28;20046;-82
2024/01/03 16:13:23;;;;;;;96.10;89.30;;;9.00;99.90;;;;;;12387771;28;20062;-86
2024/01/03 16:19:25;;;;;;;97.43;90.15;;;9.00;99.90;;;;;;12391762;28;20050;-82
2024/01/03 16:25:28;;;;;;;100.82;93.25;;;9.00;99.90;;;;;;12386378;28;20126;-89
2024/01/03 16:31:29;;;;;;;100.78;93.07;;;8.80;99.90;;;;;;12387468;28;20127;-88
2024/01/03 16:37:31;;;;;;;98.47;91.05;;;8.90;99.90;;;;;;12397891;28;20050;-89
2024/01/03 16:43:34;;;;;;;101.07;93.82;;;8.70;99.90;;;;;;12377991;28;20058;-90
2024/01/03 16:49:38;;;;;;;100.57;93.13;;;8.70;99.90;;;;;;12396923;28;20077;-88
2024/01/03 16:55:40;;;;;;;;;;;8.80;99.90;;;;;;12396000;28;20402;-89
2024/01/03 17:01:43;;;;;;;101.35;94.28;;;8.90;99.90;;;;;;12407864;28;19922;-86
2024/01/03 17:07:46;;;;;;;99.20;92.03;;;8.90;99.90;;;;;;12395361;28;20058;-85
2024/01/03 17:13:48;;;;;;;93.55;86.93;;;8.60;99.90;;;;;;12387626;28;20086;-81
2024/01/03 17:19:50;;;;;;;93.45;87.05;;;8.50;99.90;;;;;;12395878;28;20066;-87
2024/01/03 17:25:52;;;;;;;95.70;88.63;;;8.30;99.90;;;;;;12379066;28;20047;-88
2024/01/03 17:31:55;;;;;;;97.38;90.47;;;8.40;99.90;;;;;;12394761;28;20058;-88
2024/01/03 17:37:57;;;;;;;97.75;90.85;;;8.40;99.90;;;;;;12428274;28;20053;-86
2024/01/03 17:43:59;;;;;;;91.18;84.97;;;8.30;99.90;;;;;;12422887;28;20228;-88
2024/01/03 17:50:02;;;;;;;89.72;83.72;;;8.40;99.90;;;;;;12407465;28;20053;-86
2024/01/03 17:56:10;;;;;;;90.75;84.45;;;8.40;99.90;;;;;;12406743;28;20053;-88
2024/01/03 18:02:14;;;;;;;89.97;84.03;;;8.30;99.90;;;;;;12396368;28;20045;-84
2024/01/03 18:08:16;;;;;;;96.53;90.20;;;8.30;99.90;;;;;;12414172;28;20058;-89
2024/01/03 18:14:18;;;;;;;103.22;95.95;;;8.30;99.90;;;;;;12430902;28;20050;-88
2024/01/03 18:20:23;;;;;;;102.05;94.93;;;8.20;99.90;;;;;;12408441;28;20100;-85
2024/01/03 18:26:25;;;;;;;102.60;95.68;;;7.90;99.90;;;;;;12416151;28;20042;-81
2024/01/03 18:32:27;;;;;;;99.20;92.30;;;8.00;99.90;;;;;;12407108;28;20042;-81
2024/01/03 18:38:31;;;;;;;96.70;90.07;;;7.80;99.90;;;;;;12398766;28;20117;-82
2024/01/03 18:44:34;;;;;;;100.88;93.75;;;7.60;99.90;;;;;;12397091;28;20073;-82
2024/01/03 18:50:37;;;;;;;96.60;90.10;;;7.50;99.90;;;;;;12387029;28;20108;-81
2024/01/03 18:56:41;;;;;;;97.78;91.07;;;7.60;99.90;;;;;;12393332;28;20053;-82
2024/01/03 19:02:43;;;;;;;;;;;7.80;99.90;;;;;;12390873;28;20501;-80
2024/01/03 19:08:45;;;;;;;98.03;91.55;;;7.80;99.90;;;;;;12384631;28;19937;-83
2024/01/03 19:14:47;;;;;;;100.15;93.35;;;7.80;99.90;;;;;;12392327;28;20050;-81
2024/01/03 19:20:49;;;;;;;100.43;93.47;;;7.70;99.90;;;;;;12388559;28;20066;-81
2024/01/03 19:26:52;;;;;;;103.47;96.78;;;7.70;99.90;;;;;;12386395;28;20050;-82
2024/01/03 19:32:54;;;;;;;99.53;92.72;;;7.80;99.90;;;;;;12374431;28;20054;-81
2024/01/03 19:38:57;;;;;;;106.03;98.90;;;8.00;99.90;;;;;;12392640;28;20101;-87
2024/01/03 19:44:59;;;;;;;105.45;98.15;;;8.00;99.90;;;;;;12400849;28;20050;-89
2024/01/03 19:51:01;;;;;;;104.18;97.10;;;8.00;99.90;;;;;;12376521;28;20047;-88
2024/01/03 19:57:17;;;;;;;106.00;98.95;;;8.00;99.90;;;;;;12386347;28;20085;-87
2024/01/03 20:03:20;;;;;;;108.60;101.25;;;8.00;99.90;;;;;;12374971;28;20056;-88
2024/01/03 20:09:23;;;;;;;108.40;100.90;;;8.00;99.90;;;;;;12373726;28;20062;-88
2024/01/03 20:15:26;;;;;;;;;;;8.10;99.90;;;;;;12387720;28;20044;-89
2024/01/03 20:21:28;;;;;;;110.43;102.63;;;8.10;99.90;;;;;;12399561;28;19982;-86
2024/01/03 20:27:30;;;;;;;111.90;103.97;;;8.20;99.90;;;;;;12386156;28;20630;-86
2024/01/03 20:33:35;;;;;;;115.10;107.15;;;8.20;99.90;;;;;;12404944;28;20517;-89
2024/01/03 20:39:37;;;;;;;121.57;113.20;;;8.20;99.90;;;;;;12414134;28;20048;-86
2024/01/03 20:45:39;;;;;;;117.80;109.55;;;8.30;99.90;;;;;;12406916;28;20075;-86
2024/01/03 20:51:45;;;;;;;124.00;115.25;;;8.20;99.90;;;;;;12435248;28;20042;-84
2024/01/03 20:57:46;;;;;;;127.30;118.78;;;8.10;99.90;;;;;;12432625;28;20046;-81
2024/01/03 21:03:48;;;;;;;125.43;116.88;;;8.00;99.90;;;;;;12430512;28;20054;-83
2024/01/03 21:09:50;;;;;;;130.35;121.80;;;7.90;99.90;;;;;;12429664;28;20110;-85
2024/01/03 21:15:52;;;;;;;127.68;119.25;;;8.00;99.90;;;;;;12428271;28;20039;-85
2024/01/03 21:21:54;;;;;;;122.28;114.05;;;8.00;99.90;;;;;;12437765;28;20041;-84
2024/01/03 21:27:56;;;;;;;123.35;115.35;;;8.20;99.90;;;;;;12429474;28;20031;-82
2024/01/03 21:33:58;;;;;;;127.50;118.80;;;8.20;99.90;;;;;;12418828;28;20061;-84
2024/01/03 21:40:01;;;;;;;123.95;115.50;;;8.40;99.90;;;;;;12401448;28;20125;-82
2024/01/03 21:46:04;;;;;;;119.20;110.85;;;8.20;99.90;;;;;;12398726;28;20081;-82
2024/01/03 21:52:06;;;;;;;137.15;127.47;;;8.20;99.90;;;;;;12419224;28;20046;-83
2024/01/03 21:58:08;;;;;;;148.98;138.77;;;8.10;99.90;;;;;;12392872;28;20483;-90
2024/01/03 22:04:10;;;;;;;146.15;136.20;;;8.00;99.90;;;;;;12376253;28;20399;-89
2024/01/03 22:10:14;;;;;;;158.93;148.13;;;8.00;99.90;;;;;;12388557;28;20059;-89
2024/01/03 22:16:16;;;;;;;148.80;138.50;;;8.00;99.90;;;;;;12420372;28;20164;-90
2024/01/03 22:22:18;;;;;;;142.52;132.73;;;8.10;99.90;;;;;;12391638;28;20047;-88
2024/01/03 22:28:25;;;;;;;149.10;139.07;;;8.00;99.90;;;;;;12398925;28;20073;-88
2024/01/03 22:34:27;;;;;;;148.18;138.27;;;8.00;99.90;;;;;;12416744;28;20054;-86
2024/01/03 22:40:31;;;;;;;149.45;139.35;;;8.00;99.90;;;;;;12394535;28;20074;-89
2024/01/03 22:46:44;;;;;;;133.32;124.43;;;7.90;99.90;;;;;;12453096;28;20039;-84
2024/01/03 22:52:46;;;;;;;138.48;129.40;;;7.90;99.90;;;;;;12405971;28;20066;-88
2024/01/03 22:58:49;;;;;;;134.57;125.57;;;7.90;99.90;;;;;;12418199;28;20026;-85
2024/01/03 23:04:51;;;;;;;136.23;127.38;;;7.90;99.90;;;;;;12418493;28;20052;-84
2024/01/03 23:10:53;;;;;;;146.93;137.13;;;7.90;99.90;;;;;;12413848;28;20047;-86
2024/01/03 23:16:55;;;;;;;138.98;129.77;;;7.90;99.90;;;;;;12391929;28;20050;-89
2024/01/03 23:23:15;;;;;;;135.10;126.00;;;7.90;99.90;;;;;;12405892;28;20058;-87
2024/01/03 23:29:19;;;;;;;138.43;129.40;;;8.00;99.90;;;;;;12384615;28;20074;-88
2024/01/03 23:35:22;;;;;;;139.18;129.77;;;8.00;99.90;;;;;;12401286;28;20035;-87
2024/01/03 23:41:25;;;;;;;146.35;136.57;;;8.00;99.90;;;;;;12377932;28;20046;-86
2024/01/03 23:47:29;;;;;;;155.93;145.35;;;7.80;99.90;;;;;;12369244;28;20050;-88
2024/01/03 23:53:32;;;;;;;165.93;154.43;;;7.90;99.90;;;;;;12403978;28;20106;-87
2024/01/03 23:59:34;;;;;;;168.48;156.73;;;7.80;99.90;;;;;;12412068;28;20065;-87
